Latest Weather Observations for Munglinup West

IDW60801

Issued at 7:35 pm WST Friday 21 November 2014 (issued every 30 minutes, with the page automatically refreshed every 10 minutes)

About weather observations | Map of weather stations | Latest weather observations for WA | Other Formats
Station Details ID: 012044 Name: MUNGLINUP WEST Lat: -33.55 Lon: 120.70 Height: 220.0 m
Data from the previous 72 hours. | See also: Recent months at Munglinup West
Date/Time
WST
Temp
°C
App
Temp
°C
Dew
Point
Rel
Hum
%
Delta-T
°C
Wind Press
QNH
hPa
Press
MSL
hPa
Rain
since 9 am
mm
Dir
 
Spd
km/h
Gust
km/h
Spd
kts
Gust
kts
21/07:30pm 15.2 14.8 12.9 86 1.3 SE 7 11 4 6 1010.7 1010.1 0.0
21/07:00pm 15.6 14.3 12.5 82 1.7 S 11 22 6 12 1010.4 1009.7 0.0
21/06:30pm 16.6 14.1 12.4 76 2.3 S 17 22 9 12 1009.7 1009.1 0.0
21/06:00pm 17.9 15.3 12.1 69 3.2 S 17 26 9 14 1009.1 1008.5 0.0
21/05:30pm 19.5 16.5 12.5 64 4.0 S 20 26 11 14 1008.6 1008.0 0.0
21/05:00pm 21.1 18.4 12.8 59 4.8 S 19 26 10 14 1008.2 1007.6 0.0
21/04:30pm 21.8 19.6 13.2 58 5.0 S 17 22 9 12 1007.9 1007.3 0.0
21/04:00pm 21.8 18.2 12.9 57 5.1 SSE 24 37 13 20 1007.8 1007.2 0.0
21/03:30pm 23.9 21.4 14.0 54 5.9 S 20 32 11 17 1007.6 1007.0 0.0
21/03:00pm 25.0 23.9 14.2 51 6.5 S 13 24 7 13 1007.4 1006.8 0.0
21/02:30pm 24.5 22.5 14.0 52 6.2 SSW 17 28 9 15 1007.7 1007.1 0.0
21/02:00pm 23.9 21.7 13.4 51 6.2 SSW 17 26 9 14 1007.7 1007.1 0.0
21/01:30pm 25.0 23.8 13.9 50 6.6 S 13 22 7 12 1007.9 1007.3 0.0
21/01:00pm 23.7 20.5 13.0 51 6.2 WSW 22 32 12 17 1008.1 1007.5 0.0
21/12:30pm 24.0 21.5 14.1 54 5.9 SW 20 32 11 17 1008.3 1007.7 0.0
21/12:00pm 24.8 21.8 13.7 50 6.6 SSW 22 33 12 18 1008.4 1007.8 0.0
21/11:30am 23.5 20.2 12.8 51 6.2 WSW 22 32 12 17 1008.6 1008.0 0.0
21/11:28am 23.6 19.0 12.3 49 6.5 WNW 28 52 15 28 1008.6 1008.0 0.0
21/11:00am 24.6 19.7 11.2 43 7.6 W 28 46 15 25 1008.7 1008.1 0.0
21/10:30am 23.2 18.7 12.5 51 6.2 W 28 43 15 23 1009.2 1008.6 0.0
21/10:00am 22.3 17.0 12.5 53 5.6 W 32 46 17 25 1009.3 1008.7 0.0
21/09:55am 23.0 18.5 12.6 52 6.0 W 28 46 15 25 1009.3 1008.7 0.0
21/09:30am 21.2 17.1 12.6 58 4.9 W 26 37 14 20 1009.4 1008.8 0.0
21/09:00am 20.4 16.2 12.4 60 4.5 W 26 35 14 19 1009.6 1009.0 0.0
21/08:30am 20.5 16.3 12.5 60 4.6 W 26 33 14 18 1009.8 1009.2 0.0
21/08:00am 20.1 16.4 12.6 62 4.3 WSW 24 35 13 19 1009.9 1009.3 0.0
21/07:30am 20.1 15.7 12.8 63 4.2 W 28 35 15 19 1009.8 1009.2 0.0
21/07:00am 18.6 15.1 12.1 66 3.6 W 22 30 12 16 1009.6 1009.0 0.0
21/06:30am 17.6 15.3 11.9 69 3.2 WNW 15 22 8 12 1009.5 1008.9 0.0
21/06:00am 15.8 14.2 11.4 75 2.4 WNW 11 17 6 9 1009.3 1008.7 0.0
21/05:30am 14.3 13.3 11.1 81 1.7 NW 7 11 4 6 1009.0 1008.4 0.0
21/05:00am 13.6 13.1 10.6 82 1.6 NW 4 6 2 3 1008.8 1008.2 0.0
21/04:30am 13.9 12.8 10.7 81 1.7 NW 7 11 4 6 1008.6 1008.0 0.0
21/04:00am 13.7 12.2 10.5 81 1.7 NW 9 11 5 6 1008.5 1007.9 0.0
21/03:30am 14.4 12.1 10.6 78 2.0 WNW 13 19 7 10 1008.3 1007.7 0.0
21/03:00am 14.1 11.9 10.9 81 1.7 WNW 13 19 7 10 1008.4 1007.8 0.0
21/02:30am 14.1 12.9 12.7 91 0.8 WNW 11 15 6 8 1008.4 1007.8 0.0
21/02:00am 13.4 12.7 13.2 99 0.1 NW 9 11 5 6 1008.4 1007.8 0.0
21/01:30am 13.9 13.4 13.7 99 0.1 WNW 9 11 5 6 1008.6 1008.0 0.0
21/01:00am 14.0 13.5 13.8 99 0.1 WNW 9 11 5 6 1008.9 1008.3 0.0
21/12:30am 13.2 12.9 12.7 97 0.3 NNW 6 7 3 4 1009.1 1008.5 0.0
21/12:00am 13.5 13.0 12.7 95 0.4 NW 7 9 4 5 1009.3 1008.7 0.0
 
Date/Time
WST
Temp
°C
App
Temp
°C
Dew
Point
Rel
Hum
%
Delta-T
°C
Wind Press
QNH
hPa
Press
MSL
hPa
Rain
since 9 am
mm
Dir
 
Spd
km/h
Gust
km/h
Spd
kts
Gust
kts
20/11:30pm 14.1 14.3 13.1 94 0.6 W 4 6 2 3 1009.6 1009.0 0.0
20/11:00pm 14.2 14.0 12.9 92 0.7 WSW 6 7 3 4 1009.8 1009.2 0.0
20/10:30pm 14.4 15.2 12.4 88 1.1 CALM 0 0 0 0 1009.7 1009.1 0.0
20/10:00pm 15.2 14.8 12.5 84 1.5 SSW 6 9 3 5 1009.7 1009.1 0.0
20/09:30pm 16.0 14.8 11.6 75 2.4 SSW 9 11 5 6 1009.8 1009.2 0.0
20/09:00pm 17.3 16.2 12.0 71 2.9 S 9 13 5 7 1009.7 1009.1 0.0
20/08:30pm 18.2 17.1 12.0 67 3.5 S 9 11 5 6 1009.4 1008.8 0.0
20/08:00pm 19.3 17.8 11.8 62 4.2 S 11 15 6 8 1009.0 1008.4 0.0
20/07:30pm 19.5 18.7 11.0 58 4.7 SE 6 7 3 4 1008.4 1007.8 0.0
20/07:00pm 20.7 19.6 10.8 53 5.5 SE 7 11 4 6 1008.2 1007.6 0.0
20/06:30pm 24.3 21.6 9.1 38 8.3 W 13 20 7 11 1008.0 1007.4 0.0
20/06:00pm 26.3 22.8 7.4 30 10.2 WNW 15 26 8 14 1007.7 1007.1 0.0
20/05:30pm 26.6 22.2 7.6 30 10.2 WNW 20 30 11 16 1007.5 1006.9 0.0
20/05:00pm 26.4 22.1 7.9 31 10.0 W 20 32 11 17 1007.5 1006.9 0.0
20/04:30pm 27.4 22.7 7.8 29 10.6 WNW 22 33 12 18 1007.5 1006.9 0.0
20/04:00pm 27.2 21.7 7.6 29 10.6 W 26 37 14 20 1007.7 1007.1 0.0
20/03:30pm 27.7 22.3 8.1 29 10.7 W 26 39 14 21 1008.0 1007.4 0.0
20/03:00pm 27.6 21.6 8.5 30 10.5 W 30 50 16 27 1008.4 1007.8 0.0
20/02:51pm 28.1 22.3 7.9 28 11.0 W 28 50 15 27 1008.5 1007.9 0.0
20/02:30pm 27.7 21.6 8.1 29 10.7 W 30 41 16 22 1008.6 1008.0 0.0
20/02:00pm 27.1 21.2 7.5 29 10.6 W 28 46 15 25 1008.8 1008.2 0.0
20/01:34pm 27.7 21.8 7.5 28 10.9 WNW 28 50 15 27 1008.8 1008.2 0.0
20/01:30pm 26.7 20.5 7.7 30 10.3 WNW 30 44 16 24 1008.8 1008.2 0.0
20/01:00pm 26.8 20.7 8.3 31 10.1 W 30 41 16 22 1009.0 1008.4 0.0
20/12:30pm 27.0 23.1 10.7 36 9.3 WNW 22 37 12 20 1009.2 1008.6 0.0
20/12:00pm 26.6 21.6 11.1 38 8.9 WNW 28 46 15 25 1009.7 1009.1 0.0
20/11:31am 26.8 21.7 10.5 36 9.2 WNW 28 46 15 25 1010.0 1009.4 0.0
20/11:30am 26.8 21.3 10.5 36 9.2 WNW 30 46 16 25 1010.0 1009.4 0.0
20/11:11am 25.9 20.2 9.7 36 9.0 WNW 30 48 16 26 1010.2 1009.5 0.0
20/11:00am 25.8 20.9 10.0 37 8.8 WNW 26 43 14 23 1010.3 1009.6 0.0
20/10:30am 24.9 21.6 12.8 47 7.1 WNW 22 32 12 17 1011.0 1010.4 0.0
20/10:00am 23.7 19.5 13.6 53 5.9 WNW 28 37 15 20 1011.6 1011.0 0.0
20/09:30am 22.7 19.6 14.5 60 4.9 NNW 24 37 13 20 1011.7 1011.1 0.0
20/09:00am 21.9 19.3 14.8 64 4.2 N 22 35 12 19 1012.0 1011.4 0.4
20/08:30am 20.7 18.0 14.6 68 3.6 N 22 32 12 17 1012.3 1011.7 0.4
20/08:00am 19.3 16.5 14.3 73 2.9 N 22 30 12 16 1012.6 1012.0 0.4
20/07:30am 18.8 16.3 13.6 72 3.0 N 19 32 10 17 1012.8 1012.2 0.4
20/07:00am 17.3 14.3 12.6 74 2.6 N 20 32 11 17 1012.7 1012.1 0.4
20/06:30am 15.7 13.9 13.2 85 1.4 N 15 24 8 13 1013.0 1012.4 0.4
20/06:00am 13.7 12.3 13.5 99 0.1 N 13 19 7 10 1013.1 1012.5 0.4
20/05:30am 12.8 11.2 12.8 100 0.0 NNE 13 19 7 10 1012.9 1012.3 0.4
20/05:00am 12.0 10.9 12.0 100 0.0 NNE 9 13 5 7 1013.3 1012.7 0.4
20/04:30am 11.5 10.8 11.5 100 0.0 NNE 6 9 3 5 1013.4 1012.8 0.4
20/04:00am 11.3 10.0 11.3 100 0.0 NNE 9 13 5 7 1013.2 1012.6 0.4
20/03:30am 11.2 9.8 11.0 99 0.1 N 9 11 5 6 1013.5 1012.9 0.4
20/03:00am 11.2 10.2 11.0 99 0.1 N 7 9 4 5 1013.4 1012.8 0.4
20/02:30am 11.8 11.2 11.6 99 0.1 N 6 9 3 5 1013.7 1013.1 0.4
20/02:00am 11.6 10.9 11.3 98 0.2 N 6 7 3 4 1013.9 1013.3 0.4
20/01:30am 11.0 9.9 10.5 97 0.3 NNE 7 9 4 5 1013.9 1013.3 0.4
20/01:00am 11.4 10.4 10.9 97 0.3 NNE 7 7 4 4 1014.2 1013.6 0.4
20/12:30am 11.7 10.9 11.1 96 0.3 ENE 6 6 3 3 1014.5 1014.0 0.4
20/12:00am 12.3 11.7 11.7 96 0.3 ENE 6 7 3 4 1014.8 1014.3 0.4
 
Date/Time
WST
Temp
°C
App
Temp
°C
Dew
Point
Rel
Hum
%
Delta-T
°C
Wind Press
QNH
hPa
Press
MSL
hPa
Rain
since 9 am
mm
Dir
 
Spd
km/h
Gust
km/h
Spd
kts
Gust
kts
19/11:30pm 12.9 12.5 12.3 96 0.3 ENE 6 7 3 4 1015.1 1014.5 0.4
19/11:00pm 12.8 12.7 12.2 96 0.3 E 4 6 2 3 1015.3 1014.7 0.4
19/10:30pm 12.4 11.8 11.8 96 0.3 E 6 7 3 4 1015.4 1014.8 0.4
19/10:00pm 12.1 12.1 11.3 95 0.4 ESE 2 4 1 2 1015.8 1015.2 0.4
19/09:30pm 12.1 11.3 11.2 94 0.5 ESE 6 6 3 3 1015.8 1015.2 0.4
19/09:00pm 12.6 11.9 11.3 92 0.7 E 6 7 3 4 1015.7 1015.1 0.4
19/08:30pm 13.3 12.5 11.7 90 0.9 E 7 9 4 5 1015.5 1014.9 0.4
19/08:00pm 14.0 13.3 11.9 87 1.1 SE 7 11 4 6 1015.4 1014.8 0.4
19/07:30pm 14.9 13.5 12.2 84 1.5 SSE 11 15 6 8 1015.2 1014.6 0.4
19/07:00pm 15.4 14.5 12.5 83 1.6 SE 9 15 5 8 1014.8 1014.3 0.4
19/06:30pm 15.8 14.5 12.4 80 1.9 SE 11 17 6 9 1014.4 1013.8 0.4
19/06:00pm 16.2 14.4 12.2 77 2.2 SSE 13 17 7 9 1014.1 1013.5 0.4
19/05:30pm 17.3 14.8 12.4 73 2.7 SSE 17 24 9 13 1013.9 1013.3 0.4
19/05:00pm 17.3 14.9 12.8 75 2.5 SSE 17 24 9 13 1013.5 1012.9 0.4
19/04:30pm 18.2 15.9 13.1 72 2.9 SE 17 22 9 12 1013.2 1012.6 0.4
19/04:00pm 20.2 18.9 13.6 66 3.8 S 13 24 7 13 1013.0 1012.4 0.4
19/03:30pm 18.8 17.0 13.4 71 3.1 SSE 15 20 8 11 1013.0 1012.4 0.4
19/03:00pm 20.0 19.2 13.9 68 3.5 SE 11 19 6 10 1013.1 1012.5 0.4
19/02:30pm 18.9 18.0 13.7 72 3.0 S 11 19 6 10 1013.3 1012.7 0.4
19/02:00pm 19.0 18.2 14.1 73 2.8 SSE 11 15 6 8 1013.5 1012.9 0.4
19/01:30pm 18.5 18.1 14.0 75 2.6 S 9 17 5 9 1013.4 1012.8 0.4
19/01:00pm 17.5 16.6 13.8 79 2.1 S 11 20 6 11 1013.5 1012.9 0.4
19/12:30pm 17.4 16.6 14.1 81 1.9 S 11 15 6 8 1013.7 1013.1 0.4
19/12:00pm 17.7 16.9 15.0 84 1.6 S 13 20 7 11 1013.7 1013.1 0.4
19/11:30am 17.0 17.6 16.7 98 0.2 SSW 9 15 5 8 1013.8 1013.2 0.4
19/11:00am 16.0 15.9 16.0 100 0.0 SSW 11 17 6 9 1013.9 1013.3 0.4
19/10:30am 15.5 15.2 15.5 100 0.0 SSW 11 17 6 9 1014.2 1013.6 0.4
19/10:00am 14.9 13.6 14.7 99 0.1 SSW 15 22 8 12 1014.3 1013.7 0.2
19/09:30am 14.9 13.8 14.4 97 0.3 SSW 13 22 7 12 1014.0 1013.4 0.2
19/09:00am 15.5 14.9 14.7 95 0.5 SSW 11 15 6 8 1013.9 1013.3 2.8
19/08:30am 16.0 15.4 14.5 91 0.9 SSW 11 19 6 10 1013.6 1013.0 2.8
19/08:00am 16.2 15.2 14.7 91 0.9 SW 13 17 7 9 1013.5 1012.9 2.8
19/07:30am 16.3 15.6 15.3 94 0.6 SSW 13 19 7 10 1013.4 1012.8 2.8
19/07:00am 16.2 16.5 16.0 99 0.1 SSW 9 15 5 8 1013.0 1012.4 2.8
19/06:30am 15.9 16.2 15.9 100 0.0 SW 9 13 5 7 1013.1 1012.5 2.8
19/06:00am 15.3 15.3 15.3 100 0.0 WSW 9 11 5 6 1012.9 1012.3 2.8
19/05:30am 15.0 14.2 15.0 100 0.0 SW 13 17 7 9 1012.3 1011.7 2.8
19/05:00am 14.9 14.8 14.9 100 0.0 SW 9 13 5 7 1012.2 1011.6 2.8
19/04:30am 14.9 14.4 14.9 100 0.0 SW 11 15 6 8 1011.8 1011.2 2.8
19/04:00am 14.9 13.6 14.9 100 0.0 SSW 15 20 8 11 1011.2 1010.6 2.8
19/03:30am 15.2 14.4 15.2 100 0.0 SW 13 19 7 10 1011.5 1010.9 2.8
19/03:00am 15.5 14.8 15.5 100 0.0 SW 13 19 7 10 1011.1 1010.5 2.8
19/02:30am 15.5 15.2 15.5 100 0.0 SSW 11 15 6 8 1010.7 1010.1 2.8
19/02:00am 15.5 14.5 15.5 100 0.0 SW 15 20 8 11 1010.6 1009.9 2.8
19/01:30am 15.6 14.2 15.6 100 0.0 SW 17 24 9 13 1010.3 1009.6 2.8
19/01:00am 15.5 13.5 15.5 100 0.0 SW 20 26 11 14 1010.5 1009.8 2.8
19/12:30am 15.7 14.0 15.7 100 0.0 SSW 19 26 10 14 1010.4 1009.7 2.8
19/12:00am 15.8 13.9 15.8 100 0.0 SW 20 30 11 16 1010.4 1009.7 2.8
 
Date/Time
WST
Temp
°C
App
Temp
°C
Dew
Point
Rel
Hum
%
Delta-T
°C
Wind Press
QNH
hPa
Press
MSL
hPa
Rain
since 9 am
mm
Dir
 
Spd
km/h
Gust
km/h
Spd
kts
Gust
kts
18/11:30pm 15.9 14.6 15.9 100 0.0 SW 17 22 9 12 1010.8 1010.2 2.8
18/11:00pm 16.0 14.8 16.0 100 0.0 SW 17 24 9 13 1010.9 1010.3 2.8
18/10:30pm 16.3 15.6 16.3 100 0.0 SW 15 20 8 11 1011.2 1010.6 2.8
18/10:00pm 16.3 15.9 16.3 100 0.0 SSW 13 20 7 11 1011.1 1010.5 2.8
18/09:30pm 16.2 15.4 16.2 100 0.0 SSW 15 20 8 11 1010.8 1010.2 2.8
18/09:00pm 16.2 14.7 16.2 100 0.0 SSW 19 26 10 14 1010.5 1009.8 2.8
18/08:30pm 16.4 14.8 16.4 100 0.0 SSW 20 28 11 15 1010.3 1009.6 2.8
18/08:00pm 16.6 15.2 16.6 100 0.0 SSW 19 24 10 13 1009.6 1009.0 2.8

Other Formats:

Comma delimited format used in spreadsheet applications
http://www.bom.gov.au/fwo/IDW60801/IDW60801.95644.axf

JavaScript Object Notation format (JSON) in row-major order
http://www.bom.gov.au/fwo/IDW60801/IDW60801.95644.json